Time;durP1;ratioP1;P1;durP2;ratioP2;P2;SDS_P1;SDS_P2;PMS_P1;PMS_P2;Temp;Humidity;BMP_temperature;BMP_pressure;BME280_temperature;BME280_humidity;BME280_pressure;Samples;Min_cycle;Max_cycle;Signal;HPM_P1;HPM_P2
2022/12/11 00:01:52;;;;;;;189.55;41.15;;;;;;;;;;5054618;28;20495;-76
2022/12/11 00:04:18;;;;;;;271.50;46.30;;;;;;;;;;5039213;28;21067;-77
2022/12/11 00:06:49;;;;;;;248.10;48.53;;;;;;;;;;5066005;28;20423;-77
2022/12/11 00:09:16;;;;;;;174.60;37.03;;;;;;;;;;5056340;28;20925;-78
2022/12/11 00:11:42;;;;;;;180.82;39.47;;;;;;;;;;5054290;28;20435;-77
2022/12/11 00:14:08;;;;;;;175.82;37.88;;;;;;;;;;5042358;28;20420;-78
2022/12/11 00:16:34;;;;;;;550.08;64.82;;;;;;;;;;5079539;28;20400;-77
2022/12/11 00:19:00;;;;;;;172.52;38.90;;;;;;;;;;5053600;28;20422;-77
2022/12/11 00:21:26;;;;;;;142.35;36.45;;;;;;;;;;5045897;28;20501;-78
2022/12/11 00:23:52;;;;;;;145.15;35.35;;;;;;;;;;5059889;28;20412;-77
2022/12/11 00:26:18;;;;;;;155.47;38.17;;;;;;;;;;5068905;28;20454;-78
2022/12/11 00:28:45;;;;;;;156.55;37.75;;;;;;;;;;5060228;28;20457;-78
2022/12/11 00:31:13;;;;;;;155.77;37.38;;;;;;;;;;5039790;28;20423;-77
2022/12/11 00:33:39;;;;;;;164.55;39.92;;;;;;;;;;5062735;28;20451;-78
2022/12/11 00:36:10;;;;;;;161.32;37.67;;;;;;;;;;5057671;28;20424;-78
2022/12/11 00:38:36;;;;;;;164.52;40.13;;;;;;;;;;5053548;28;20424;-79
2022/12/11 00:41:02;;;;;;;167.65;40.03;;;;;;;;;;5036761;28;20473;-78
2022/12/11 00:43:28;;;;;;;183.83;42.20;;;;;;;;;;5053531;28;20769;-79
2022/12/11 00:45:54;;;;;;;180.88;41.47;;;;;;;;;;5054269;28;20921;-78
2022/12/11 00:48:20;;;;;;;154.82;37.70;;;;;;;;;;5034074;28;20907;-78
2022/12/11 00:50:46;;;;;;;167.93;38.67;;;;;;;;;;5050503;28;20425;-78
2022/12/11 00:53:12;;;;;;;172.57;39.33;;;;;;;;;;5056515;28;20403;-78
2022/12/11 00:55:39;;;;;;;401.35;54.92;;;;;;;;;;5056603;28;20423;-79
2022/12/11 00:58:06;;;;;;;165.77;38.25;;;;;;;;;;5035563;28;20463;-77
2022/12/11 01:00:32;;;;;;;179.85;39.15;;;;;;;;;;5033237;28;20780;-78
2022/12/11 01:02:58;;;;;;;172.65;39.55;;;;;;;;;;5028863;28;20431;-78
2022/12/11 01:05:25;;;;;;;189.68;40.08;;;;;;;;;;5030076;28;21010;-79
2022/12/11 01:07:51;;;;;;;164.75;38.97;;;;;;;;;;5030042;28;20430;-79
2022/12/11 01:10:23;;;;;;;163.27;38.33;;;;;;;;;;5033653;28;20426;-79
2022/12/11 01:12:53;;;;;;;174.02;40.00;;;;;;;;;;5033675;28;20427;-78
2022/12/11 01:15:19;;;;;;;180.45;39.88;;;;;;;;;;5012485;28;20455;-78
2022/12/11 01:17:46;;;;;;;197.90;43.03;;;;;;;;;;5019315;28;20434;-79
2022/12/11 01:20:12;;;;;;;176.57;39.05;;;;;;;;;;5030421;28;20450;-78
2022/12/11 01:22:38;;;;;;;186.93;41.30;;;;;;;;;;5013610;28;20455;-78
2022/12/11 01:25:04;;;;;;;156.35;37.42;;;;;;;;;;5011008;28;20401;-78
2022/12/11 01:27:30;;;;;;;175.30;37.13;;;;;;;;;;4991214;28;20433;-79
2022/12/11 01:29:56;;;;;;;159.63;38.53;;;;;;;;;;5029949;28;20430;-79
2022/12/11 01:32:22;;;;;;;267.83;45.67;;;;;;;;;;5011099;28;20453;-78
2022/12/11 01:34:48;;;;;;;171.82;38.63;;;;;;;;;;5030732;28;20406;-79
2022/12/11 01:37:14;;;;;;;150.18;35.88;;;;;;;;;;5029711;28;20446;-79
2022/12/11 01:39:40;;;;;;;159.25;37.28;;;;;;;;;;5029361;28;20434;-78
2022/12/11 01:42:09;;;;;;;159.65;37.08;;;;;;;;;;5027493;28;20470;-77
2022/12/11 01:44:36;;;;;;;159.35;36.40;;;;;;;;;;5027931;28;20502;-77
2022/12/11 01:47:02;;;;;;;167.52;36.58;;;;;;;;;;5023532;28;20434;-78
2022/12/11 01:49:28;;;;;;;163.45;37.10;;;;;;;;;;5029593;28;20825;-78
2022/12/11 01:52:00;;;;;;;157.52;38.28;;;;;;;;;;5012434;28;20602;-76
2022/12/11 01:54:27;;;;;;;148.15;36.22;;;;;;;;;;5017410;28;20862;-78
2022/12/11 01:56:55;;;;;;;161.87;35.50;;;;;;;;;;5024658;28;20439;-78
2022/12/11 01:59:24;;;;;;;156.95;36.80;;;;;;;;;;5012517;28;20553;-78
2022/12/11 02:01:53;;;;;;;163.55;36.47;;;;;;;;;;5011347;28;20926;-78
2022/12/11 02:04:19;;;;;;;167.90;37.00;;;;;;;;;;5013786;28;20418;-79
2022/12/11 02:06:46;;;;;;;165.43;35.85;;;;;;;;;;5014775;28;20433;-78
2022/12/11 02:09:14;;;;;;;139.98;33.47;;;;;;;;;;5026179;28;20439;-78
2022/12/11 02:11:40;;;;;;;142.57;32.92;;;;;;;;;;5026836;28;20419;-78
2022/12/11 02:14:10;;;;;;;132.48;32.83;;;;;;;;;;5027254;28;20510;-78
2022/12/11 02:16:41;;;;;;;122.93;29.83;;;;;;;;;;5030070;28;20419;-78
2022/12/11 02:19:44;;;;;;;118.80;30.37;;;0.30;99.90;;;;;;5029441;28;20963;-78
2022/12/11 02:22:11;;;;;;;108.15;27.52;;;;;;;;;;5008264;28;20429;-78
2022/12/11 02:24:52;;;;;;;107.60;28.15;;;;;;;;;;5013700;28;20453;-77
2022/12/11 02:27:45;;;;;;;97.50;26.33;;;;;;;;;;5026298;28;20431;-78
2022/12/11 02:30:12;;;;;;;174.30;32.92;;;;;;;;;;5024468;28;20424;-79
2022/12/11 02:32:51;;;;;;;105.82;28.17;;;;;;;;;;5030209;28;20486;-79
2022/12/11 02:35:19;;;;;;;112.68;29.08;;;;;;;;;;5031502;28;20424;-78
2022/12/11 02:37:47;;;;;;;122.53;30.13;;;;;;;;;;5037036;28;20787;-78
2022/12/11 02:40:15;;;;;;;133.98;30.20;;;;;;;;;;5030377;28;20419;-79
2022/12/11 02:42:42;;;;;;;138.97;32.97;;;;;;;;;;5031192;28;20527;-79
2022/12/11 02:45:09;;;;;;;146.52;32.10;;;;;;;;;;5034635;28;20767;-78
2022/12/11 02:47:35;;;;;;;130.07;32.50;;;;;;;;;;5030789;28;20423;-79
2022/12/11 02:50:03;;;;;;;144.05;34.00;;;;;;;;;;5015291;28;20470;-79
2022/12/11 02:52:30;;;;;;;141.68;33.20;;;;;;;;;;5024468;28;20422;-79
2022/12/11 02:54:58;;;;;;;147.40;33.65;;;;;;;;;;5032904;28;20470;-78
2022/12/11 02:57:31;;;;;;;143.15;33.50;;;;;;;;;;5042401;28;20421;-79
2022/12/11 02:59:57;;;;;;;127.73;32.00;;;;;;;;;;5047946;28;20966;-79
2022/12/11 03:02:23;;;;;;;138.32;31.40;;;;;;;;;;5053439;28;20409;-78
2022/12/11 03:04:50;;;;;;;130.52;31.13;;;;;;;;;;5036861;28;20402;-79
2022/12/11 03:07:18;;;;;;;130.80;30.88;;;;;;;;;;5051624;28;20425;-79
2022/12/11 03:09:45;;;;;;;129.80;31.67;;;;;;;;;;5053214;28;20429;-79
2022/12/11 03:12:23;;;;;;;144.05;32.25;;;;;;;;;;5034087;28;20426;-79
2022/12/11 03:14:50;;;;;;;122.53;29.85;;;;;;;;;;5054257;28;20927;-79
2022/12/11 03:17:23;;;;;;;117.45;29.58;;;;;;;;;;5052692;28;20519;-79
2022/12/11 03:19:50;;;;;;;119.00;29.42;;;;;;;;;;5051229;28;20421;-78
2022/12/11 03:22:28;;;;;;;110.55;28.23;;;;;;;;;;5050401;28;20978;-79
2022/12/11 03:25:17;;;;;;;105.80;27.65;;;;;;;;;;5050345;28;20417;-79
2022/12/11 03:27:49;;;;;;;318.75;42.13;;;;;;;;;;5039792;28;20533;-79
2022/12/11 03:30:19;;;;;;;110.95;29.00;;;;;;;;;;5052780;28;20750;-79
2022/12/11 03:32:49;;;;;;;123.83;30.20;;;;;;;;;;5050946;28;21010;-79
2022/12/11 03:35:24;;;;;;;129.55;29.38;;;;;;;;;;5038091;28;20403;-79
2022/12/11 03:37:54;;;;;;;117.85;28.75;;;;;;;;;;5050754;28;20428;-78
2022/12/11 03:40:22;;;;;;;108.82;28.88;;;;;;;;;;5050928;28;20750;-79
2022/12/11 03:42:49;;;;;;;144.50;31.40;;;;;;;;;;5050674;28;20421;-78
2022/12/11 03:45:16;;;;;;;125.85;31.00;;;;;;;;;;5052122;28;20425;-78
2022/12/11 03:47:43;;;;;;;98.05;27.60;;;;;;;;;;5035290;28;20971;-78
2022/12/11 03:50:11;;;;;;;112.53;28.20;;;;;;;;;;5052299;28;20476;-79
2022/12/11 03:52:39;;;;;;;121.35;28.45;;;;;;;;;;5050948;28;20453;-78
2022/12/11 03:55:06;;;;;;;123.53;30.00;;;;;;;;;;5051270;28;20428;-79
2022/12/11 03:57:33;;;;;;;129.13;31.05;;;;;;;;;;5044794;28;20947;-75
2022/12/11 03:59:59;;;;;;;301.35;39.83;;;;;;;;;;5031132;28;20457;-78
2022/12/11 04:02:25;;;;;;;131.75;31.17;;;;;;;;;;5026925;28;20502;-78
2022/12/11 04:04:51;;;;;;;126.82;30.60;;;;;;;;;;5032261;28;20425;-79
2022/12/11 04:07:17;;;;;;;137.07;31.70;;;;;;;;;;5029214;28;20504;-78
2022/12/11 04:09:43;;;;;;;125.28;30.35;;;;;;;;;;5041282;28;20434;-79
2022/12/11 04:12:09;;;;;;;132.63;31.23;;;;;;;;;;5023423;28;20453;-79
2022/12/11 04:25:35;;;;;;;123.38;31.05;;;;;;;;;;5039718;28;20420;-78
2022/12/11 04:28:01;;;;;;;128.40;31.27;;;;;;;;;;5037826;28;20496;-78
2022/12/11 04:30:27;;;;;;;127.82;32.05;;;;;;;;;;5018530;28;20428;-79
2022/12/11 04:32:53;;;;;;;122.72;30.10;;;;;;;;;;5025459;28;20507;-78
2022/12/11 04:35:20;;;;;;;127.20;30.50;;;;;;;;;;5036238;28;20422;-78
2022/12/11 04:37:46;;;;;;;119.10;30.98;;;;;;;;;;5035086;28;20513;-78
2022/12/11 04:40:14;;;;;;;115.47;29.60;;;;;;;;;;5039744;28;20418;-79
2022/12/11 04:42:40;;;;;;;118.68;29.83;;;;;;;;;;5036325;28;20907;-78
2022/12/11 04:45:07;;;;;;;148.02;32.78;;;;;;;;;;5034365;28;20546;-78
2022/12/11 04:47:34;;;;;;;118.68;29.95;;;;;;;;;;5049996;28;20433;-78
2022/12/11 04:50:01;;;;;;;111.93;29.27;;;;;;;;;;5031213;28;20457;-79
2022/12/11 04:52:27;;;;;;;111.18;29.20;;;;;;;;;;5048312;28;20418;-79
2022/12/11 04:54:53;;;;;;;109.07;28.00;;;;;;;;;;5031303;28;20426;-78
2022/12/11 04:57:20;;;;;;;122.35;29.08;;;;;;;;;;5033276;28;20530;-78
2022/12/11 04:59:46;;;;;;;182.05;32.38;;;;;;;;;;5031998;28;20502;-79
2022/12/11 05:02:12;;;;;;;118.10;29.35;;;;;;;;;;5051039;28;20467;-78
2022/12/11 05:04:38;;;;;;;112.40;30.70;;;;;;;;;;5050310;28;20500;-79
2022/12/11 05:07:04;;;;;;;116.00;30.87;;;;;;;;;;5033012;28;20950;-79
2022/12/11 05:09:30;;;;;;;114.57;29.60;;;;;;;;;;5049799;28;20933;-79
2022/12/11 05:11:57;;;;;;;127.82;31.98;;;;;;;;;;5041512;28;21003;-78
2022/12/11 05:14:23;;;;;;;401.20;48.83;;;;;;;;;;5033171;28;20431;-79
2022/12/11 05:16:49;;;;;;;123.13;31.55;;;;;;;;;;5039437;28;20505;-78
2022/12/11 05:19:15;;;;;;;129.57;32.40;;;;;;;;;;5042111;28;20427;-79
2022/12/11 05:21:41;;;;;;;124.37;30.47;;;;;;;;;;5048801;28;20503;-78
2022/12/11 05:24:07;;;;;;;121.72;30.27;;;;;;;;;;5033516;28;20421;-79
2022/12/11 05:26:33;;;;;;;133.40;34.00;;;;;;;;;;5050692;28;21072;-78
2022/12/11 05:28:59;;;;;;;145.00;32.38;;;;;;;;;;5033826;28;20404;-78
2022/12/11 05:31:26;;;;;;;119.20;30.15;;;;;;;;;;5045967;28;20417;-79
2022/12/11 05:33:53;;;;;;;122.70;30.63;;;;;;;;;;5049025;28;20984;-78
2022/12/11 05:36:19;;;;;;;122.53;29.98;;;;;;;;;;5052048;28;20459;-78
2022/12/11 05:38:45;;;;;;;128.25;31.88;;;;;;;;;;5032501;28;20417;-78
2022/12/11 05:41:13;;;;;;;122.25;31.92;;;;;;;;;;5037407;28;20502;-79
2022/12/11 05:43:39;;;;;;;123.65;31.90;;;;;;;;;;5047539;28;20417;-79
2022/12/11 05:46:06;;;;;;;147.07;32.75;;;;;;;;;;5034193;28;20405;-78
2022/12/11 05:48:32;;;;;;;120.00;29.92;;;;;;;;;;5049210;28;20428;-79
2022/12/11 05:50:59;;;;;;;120.93;30.98;;;;;;;;;;5048843;28;20421;-79
2022/12/11 05:53:25;;;;;;;122.28;30.38;;;;;;;;;;5023969;28;20421;-79
2022/12/11 05:55:51;;;;;;;145.07;33.40;;;;;;;;;;5050352;28;20517;-79
2022/12/11 05:58:19;;;;;;;137.88;32.53;;;;;;;;;;5016744;28;20423;-79
2022/12/11 06:00:46;;;;;;;140.30;32.28;;;;;;;;;;5021401;28;20450;-79
2022/12/11 06:03:12;;;;;;;136.00;31.48;;;;;;;;;;5029523;28;20423;-75
2022/12/11 06:05:38;;;;;;;128.45;32.00;;;;;;;;;;5012058;28;20744;-79
2022/12/11 06:08:05;;;;;;;133.40;32.00;;;;;;;;;;5007765;28;20426;-79
2022/12/11 06:10:31;;;;;;;119.97;30.75;;;;;;;;;;5020056;28;20464;-78
2022/12/11 06:12:57;;;;;;;131.13;31.33;;;;;;;;;;5000013;28;20427;-78
2022/12/11 06:15:23;;;;;;;124.88;31.30;;;;;;;;;;5017470;28;20411;-78
2022/12/11 06:17:49;;;;;;;141.13;32.15;;;;;;;;;;4993772;28;20436;-78
2022/12/11 06:20:15;;;;;;;131.98;31.58;;;;;;;;;;5024121;28;20418;-78
2022/12/11 06:22:41;;;;;;;139.55;32.55;;;;;;;;;;5032397;28;20423;-79
2022/12/11 06:25:08;;;;;;;157.20;33.30;;;;;;;;;;5034467;28;20398;-79
2022/12/11 06:27:34;;;;;;;374.48;47.58;;;;;;;;;;5033656;28;20476;-77
2022/12/11 06:30:00;;;;;;;158.93;33.80;;;;;;;;;;5029236;28;20423;-78
2022/12/11 06:32:26;;;;;;;149.38;33.85;;;;;;;;;;5035464;28;20476;-78
2022/12/11 06:34:53;;;;;;;129.85;32.47;;;;;;;;;;5042023;28;20422;-78
2022/12/11 06:37:19;;;;;;;127.50;31.52;;;;;;;;;;5042762;28;20433;-78
2022/12/11 06:39:45;;;;;;;237.23;37.22;;;;;;;;;;5021532;28;20414;-79
2022/12/11 06:42:12;;;;;;;141.25;32.50;;;;;;;;;;5030262;28;20478;-80
2022/12/11 06:44:38;;;;;;;137.82;31.42;;;;;;;;;;5036919;28;20423;-79
2022/12/11 06:47:04;;;;;;;314.65;43.97;;;;;;;;;;5048775;28;20472;-79
2022/12/11 06:49:30;;;;;;;144.48;31.40;;;;;;;;;;5030808;28;20423;-79
2022/12/11 06:51:57;;;;;;;143.02;32.35;;;;;;;;;;5028893;28;20468;-79
2022/12/11 06:54:27;;;;;;;175.63;34.53;;;;;;;;;;5015269;28;20430;-79
2022/12/11 06:56:53;;;;;;;311.30;44.30;;;;;;;;;;5032973;28;20514;-79
2022/12/11 06:59:19;;;;;;;140.00;32.97;;;;;;;;;;5030932;28;20438;-79
2022/12/11 07:01:48;;;;;;;140.43;32.88;;;;;;;;;;5033627;28;20399;-79
2022/12/11 07:04:14;;;;;;;144.65;32.75;;;;;;;;;;5021892;28;20420;-78
2022/12/11 07:06:40;;;;;;;440.73;54.35;;;;;;;;;;5013580;28;20427;-79
2022/12/11 07:09:06;;;;;;;162.43;35.38;;;;;;;;;;4982487;28;20455;-79
2022/12/11 07:11:32;;;;;;;135.95;33.63;;;;;;;;;;5027012;28;20440;-79
2022/12/11 07:14:02;;;;;;;143.60;34.00;;;;;;;;;;5015309;28;20493;-79
2022/12/11 07:16:28;;;;;;;145.43;33.35;;;;;;;;;;5032156;28;20419;-78
2022/12/11 07:18:54;;;;;;;146.55;34.50;;;;;;;;;;5012279;28;20439;-78
2022/12/11 07:21:21;;;;;;;154.35;35.17;;;;;;;;;;5027318;28;20427;-76
2022/12/11 07:23:47;;;;;;;145.82;34.17;;;;;;;;;;5025023;28;20496;-78
2022/12/11 07:26:15;;;;;;;208.93;38.58;;;;;;;;;;5016934;28;20441;-78
2022/12/11 07:28:41;;;;;;;138.95;33.60;;;;;;;;;;5014716;28;20735;-79
2022/12/11 07:31:09;;;;;;;154.55;35.15;;;;;;;;;;5022604;28;20480;-79
2022/12/11 07:33:35;;;;;;;140.68;36.50;;;;;;;;;;5008841;28;20810;-79
2022/12/11 07:36:06;;;;;;;150.73;34.53;;;;;;;;;;5032248;28;20422;-78
2022/12/11 07:38:32;;;;;;;150.60;35.60;;;;;;;;;;5032327;28;20427;-79
2022/12/11 07:41:02;;;;;;;147.00;34.97;;;;;;;;;;5015951;28;20513;-79
2022/12/11 07:43:28;;;;;;;149.10;35.13;;;;;;;;;;5014987;28;20817;-79
2022/12/11 07:45:54;;;;;;;148.70;35.53;;;;;;;;;;5013251;28;20491;-78
2022/12/11 07:48:20;;;;;;;144.37;35.83;;;;;;;;;;4988652;28;20436;-78
2022/12/11 07:50:46;;;;;;;154.55;37.20;;;;;;;;;;5020854;28;20452;-77
2022/12/11 07:53:12;;;;;;;162.48;36.95;;;;;;;;;;5030892;28;21000;-80
2022/12/11 07:55:38;;;;;;;251.10;43.33;;;;;;;;;;5028405;28;20965;-80
2022/12/11 07:58:04;;;;;;;193.07;38.80;;;;;;;;;;5023475;28;20427;-80
2022/12/11 08:00:30;;;;;;;146.50;35.30;;;;;;;;;;5038871;28;20611;-78
2022/12/11 08:02:56;;;;;;;167.38;36.40;;;;;;;;;;5048489;28;20417;-80
2022/12/11 08:05:23;;;;;;;198.65;38.60;;;;;;;;;;5031230;28;20501;-80
2022/12/11 08:07:49;;;;;;;149.05;36.42;;;;;;;;;;5047802;28;20432;-80
2022/12/11 08:10:15;;;;;;;148.50;35.07;;;;;;;;;;5051793;28;21215;-81
2022/12/11 08:12:41;;;;;;;144.82;35.67;;;;;;;;;;5047447;28;20494;-80
2022/12/11 08:15:08;;;;;;;150.75;36.88;;;;;;;;;;5042682;28;20456;-79
2022/12/11 08:17:34;;;;;;;148.40;34.58;;;;;;;;;;5051056;28;20889;-80
2022/12/11 08:20:00;;;;;;;153.68;35.33;;;;;;;;;;5034947;28;20451;-73
2022/12/11 08:22:26;;;;;;;149.10;35.50;;;;;;;;;;5025420;28;20436;-72
2022/12/11 08:24:52;;;;;;;154.63;35.72;;;;;;;;;;5041532;28;20422;-73
2022/12/11 08:27:18;;;;;;;155.05;37.75;;;;;;;;;;5043048;28;20949;-73
2022/12/11 08:29:46;;;;;;;169.55;38.65;;;;;;;;;;5032554;28;20479;-73
2022/12/11 08:32:12;;;;;;;244.05;41.95;;;;;;;;;;5023792;28;20426;-73
2022/12/11 08:34:39;;;;;;;151.18;35.13;;;;;;;;;;5047957;28;20425;-73
2022/12/11 08:37:05;;;;;;;149.05;34.67;;;;;;;;;;5048440;28;20425;-74
2022/12/11 08:39:31;;;;;;;135.30;33.47;;;;;;;;;;5040680;28;20455;-73
2022/12/11 08:41:57;;;;;;;156.20;36.30;;;;;;;;;;5025154;28;20417;-73
2022/12/11 08:44:25;;;;;;;143.80;36.33;;;;;;;;;;5049639;28;20414;-73
2022/12/11 08:46:51;;;;;;;164.87;38.07;;;;;;;;;;5032627;28;20472;-73
2022/12/11 08:49:17;;;;;;;144.77;35.95;;;;;;;;;;5032757;28;20420;-74
2022/12/11 08:51:43;;;;;;;136.07;35.23;;;;;;;;;;5047693;28;20425;-73
2022/12/11 08:54:10;;;;;;;165.00;37.20;;;;;;;;;;5027621;28;20431;-73
2022/12/11 08:56:36;;;;;;;146.77;36.15;;;;;;;;;;5046859;28;20429;-73
2022/12/11 08:59:03;;;;;;;147.82;36.72;;;;;;;;;;5050871;28;20462;-73
2022/12/11 09:01:29;;;;;;;185.05;38.83;;;;;;;;;;5042841;28;20420;-73
2022/12/11 09:03:56;;;;;;;160.55;38.70;;;;;;;;;;5047772;28;20779;-73
2022/12/11 09:06:23;;;;;;;166.68;37.42;;;;;;;;;;5046787;28;20416;-73
2022/12/11 09:08:50;;;;;;;166.38;36.15;;;;;;;;;;5034014;28;20423;-73
2022/12/11 09:11:18;;;;;;;150.73;37.92;;;;;;;;;;5049051;28;20500;-80
2022/12/11 09:13:44;;;;;;;248.15;43.92;;;;;;;;;;5047212;28;20419;-80
2022/12/11 09:16:12;;;;;;;394.37;53.27;;;;;;;;;;5053920;28;20517;-80
2022/12/11 09:18:39;;;;;;;169.60;39.40;;;;;;;;;;5047777;28;20907;-80
2022/12/11 09:21:06;;;;;;;170.32;38.15;;;;;;;;;;5036731;28;20411;-80
2022/12/11 09:23:32;;;;;;;165.45;38.45;;;;;;;;;;5053748;28;20435;-80
2022/12/11 09:25:58;;;;;;;170.77;38.22;;;;;;;;;;5055192;28;20421;-81
2022/12/11 09:28:25;;;;;;;173.93;36.90;;;;;;;;;;5055301;28;20426;-80
2022/12/11 09:30:51;;;;;;;150.40;36.42;;;;;;;;;;5042842;28;20438;-81
2022/12/11 09:33:17;;;;;;;155.20;37.13;;;;;;;;;;5049761;28;20941;-81
2022/12/11 09:35:43;;;;;;;150.50;35.63;;;;;;;;;;5044311;28;20458;-82
2022/12/11 09:38:12;;;;;;;142.98;35.00;;;;;;;;;;5029511;28;20429;-81
2022/12/11 09:40:42;;;;;;;142.20;36.57;;;;;;;;;;5031651;28;20488;-81
2022/12/11 09:43:17;;;;;;;146.15;34.90;;;;;;;;;;5045129;28;20427;-80
2022/12/11 09:45:43;;;;;;;267.13;43.88;;;;;;;;;;5048641;28;20422;-80
2022/12/11 09:48:10;;;;;;;149.15;36.53;;;;;;;;;;5030653;28;20428;-80
2022/12/11 09:50:36;;;;;;;134.65;35.33;;;;;;;;;;5051507;28;20506;-80
2022/12/11 09:53:26;;;;;;;133.83;37.30;;;;;;;;;;5065421;28;20450;-80
2022/12/11 09:55:52;;;;;;;140.50;36.97;;;;;;;;;;5024732;28;20782;-81
2022/12/11 09:58:24;;;;;;;145.15;36.45;;;;;;;;;;5050777;28;20787;-79
2022/12/11 10:01:02;;;;;;;161.93;39.20;;;;;;;;;;5039683;28;20480;-80
2022/12/11 10:03:37;;;;;;;158.52;39.72;;;;;;;;;;5049601;28;20447;-80
2022/12/11 10:06:12;;;;;;;156.00;37.13;;;;;;;;;;5047599;28;20414;-80
2022/12/11 10:08:52;;;;;;;145.10;39.28;;;;;;;;;;5048562;28;20446;-80
2022/12/11 10:11:25;;;;;;;141.05;36.92;;;;;;;;;;5043610;28;20430;-80
2022/12/11 10:14:01;;;;;;;167.07;40.72;;;;;;;;;;5033429;28;20477;-80
2022/12/11 10:16:33;;;;;;;150.00;37.45;;;;;;;;;;5066409;28;20411;-79
2022/12/11 10:18:59;;;;;;;138.18;36.90;;;;;;;;;;5055651;28;20426;-79
2022/12/11 10:21:26;;;;;;;147.15;36.17;;;;;;;;;;5049059;28;20412;-80
2022/12/11 10:23:55;;;;;;;144.93;35.97;;;;;;;;;;5049758;28;21561;-80
2022/12/11 10:26:22;;;;;;;136.82;36.13;;;;;;;;;;5046140;28;20487;-80
2022/12/11 10:28:48;;;;;;;144.82;35.80;;;;;;;;;;5044645;28;20506;-80
2022/12/11 10:31:18;;;;;;;137.48;35.78;;;;;;;;;;5050405;28;20475;-80
2022/12/11 10:34:01;;;;;;;129.48;34.70;;;;;;;;;;5043272;28;20419;-80
2022/12/11 10:36:32;;;;;;;126.35;34.72;;;;;;;;;;5046596;28;20472;-82
2022/12/11 10:38:58;;;;;;;148.13;38.33;;;;;;;;;;5032018;28;20419;-80
2022/12/11 10:41:33;;;;;;;126.73;36.00;;;;;;;;;;5051923;28;20502;-80
2022/12/11 10:44:00;;;;;;;120.57;34.27;;;;;;;;;;5040775;28;20419;-80
2022/12/11 10:46:28;;;;;;;365.95;52.13;;;;;;;;;;5034701;28;20955;-80
2022/12/11 10:49:01;;;;;;;134.00;35.67;;;;;;;;;;5033337;28;20472;-79
2022/12/11 10:51:30;;;;;;;140.18;36.67;;;;;;;;;;5051006;28;20427;-81
2022/12/11 10:53:57;;;;;;;126.03;35.42;;;;;;;;;;5046234;28;20403;-78
2022/12/11 10:56:31;;;;;;;120.05;34.85;;;;;;;;;;5067090;28;20436;-78
2022/12/11 10:58:57;;;;;;;136.25;36.85;;;;;;;;;;5052151;28;20428;-79
2022/12/11 11:01:25;;;;;;;124.05;34.90;;;;;;;;;;5031628;28;20503;-79
2022/12/11 11:03:53;;;;;;;113.32;34.53;;;;;;;;;;5044295;28;20424;-78
2022/12/11 11:06:20;;;;;;;115.70;34.03;;;;;;;;;;5069564;28;20417;-80
2022/12/11 11:08:48;;;;;;;312.67;47.65;;;;;;;;;;5084438;28;20448;-80
2022/12/11 11:11:20;;;;;;;120.45;35.38;;;;;;;;;;5045149;28;20420;-80
2022/12/11 11:13:46;;;;;;;115.20;33.83;;;;;;;;;;5038715;28;20883;-79
2022/12/11 11:16:14;;;;;;;119.38;35.28;;;;;;;;;;5055674;28;20412;-80
2022/12/11 11:18:42;;;;;;;118.50;34.30;;;;;;;;;;5055630;28;20966;-79
2022/12/11 11:21:18;;;;;;;183.67;38.80;;;;;;;;;;5054622;28;20457;-80
2022/12/11 11:23:44;;;;;;;116.18;34.08;;;;;;;;;;5052950;28;20414;-80
2022/12/11 11:26:11;;;;;;;115.70;33.83;;;;;;;;;;5048987;28;20474;-80
2022/12/11 11:28:39;;;;;;;111.73;35.40;;;;;;;;;;5037122;28;20415;-80
2022/12/11 11:31:12;;;;;;;106.80;33.00;;;;;;;;;;5062477;28;20712;-80
2022/12/11 11:33:46;;;;;;;137.48;52.15;;;;;;;;;;5043923;28;20971;-80
2022/12/11 11:36:25;;;;;;;122.85;39.17;;;;;;;;;;5030102;28;20503;-79
2022/12/11 11:39:02;;;;;;;117.85;38.08;;;;;;;;;;5037131;28;20451;-80
2022/12/11 11:41:32;;;;;;;110.55;35.58;;;;;;;;;;5047717;28;20432;-79
2022/12/11 11:44:00;;;;;;;128.35;42.60;;;;;;;;;;5028986;28;20426;-78
2022/12/11 11:46:35;;;;;;;103.35;31.80;;;;;;;;;;5037708;28;20427;-80
2022/12/11 11:49:15;;;;;;;102.60;32.53;;;;;;;;;;5048555;28;20424;-79
2022/12/11 11:51:45;;;;;;;106.30;34.50;;;;;;;;;;5047853;28;20425;-79
2022/12/11 11:54:20;;;;;;;102.20;32.97;;;;;;;;;;5049872;28;20430;-79
2022/12/11 11:56:46;;;;;;;107.15;33.85;;;;;;;;;;5038555;28;20760;-78
2022/12/11 11:59:24;;;;;;;93.78;31.63;;;;;;;;;;5073172;28;20419;-80
2022/12/11 12:01:53;;;;;;;103.88;32.75;;;;;;;;;;5037839;28;20446;-79
2022/12/11 12:04:19;;;;;;;101.35;32.10;;;;;;;;;;5056235;28;20453;-79
2022/12/11 12:07:04;;;;;;;93.85;30.85;;;;;;;;;;5039468;28;20429;-79
2022/12/11 12:09:36;;;;;;;95.97;31.88;;;;;;;;;;5054912;28;20426;-80
2022/12/11 12:12:13;;;;;;;95.68;33.88;;;;;;;;;;5053945;28;20416;-80
2022/12/11 12:14:42;;;;;;;91.93;31.33;;;;;;;;;;5055839;28;20431;-79
2022/12/11 12:17:08;;;;;;;86.15;30.95;;;;;;;;;;5055843;28;20513;-79
2022/12/11 12:19:46;;;;;;;81.40;29.50;;;;;;;;;;5055145;28;20422;-80
2022/12/11 12:22:18;;;;;;;81.07;28.50;;;;;;;;;;5056254;28;20408;-79
2022/12/11 12:24:45;;;;;;;81.70;29.70;;;;;;;;;;5039126;28;20400;-80
2022/12/11 12:27:11;;;;;;;81.32;28.52;;;;;;;;;;5055092;28;20532;-79
2022/12/11 12:29:37;;;;;;;77.05;27.80;;;;;;;;;;5039238;28;20406;-80
2022/12/11 12:32:17;;;;;;;77.10;27.40;;;;;;;;;;5038309;28;20505;-80
2022/12/11 12:34:52;;;;;;;69.47;27.90;;;;;;;;;;5054824;28;20423;-80
2022/12/11 12:37:25;;;;;;;76.85;27.80;;;;;;;;;;5039650;28;20427;-80
2022/12/11 12:39:54;;;;;;;73.95;27.70;;;;;;;;;;5057815;28;20465;-81
2022/12/11 12:42:28;;;;;;;77.57;28.10;;;;;;;;;;5041261;28;20414;-81
2022/12/11 12:45:07;;;;;;;74.90;27.97;;;;;;;;;;5060071;28;20458;-80
2022/12/11 12:47:35;;;;;;;81.70;28.40;;;;;;;;;;5053818;28;20419;-80
2022/12/11 12:50:02;;;;;;;88.65;31.10;;;;;;;;;;5071792;28;20415;-81
2022/12/11 12:52:33;;;;;;;78.10;29.17;;;;;;;;;;5054791;28;20520;-80
2022/12/11 12:55:13;;;;;;;79.47;28.80;;;;;;;;;;5043203;28;20403;-80
2022/12/11 12:57:50;;;;;;;78.72;28.40;;;;;;;;;;5061316;28;20424;-80
2022/12/11 13:00:48;;;;;;;72.20;27.17;;;;;;;;;;5042581;28;20502;-80
2022/12/11 13:03:14;;;;;;;73.90;27.05;;;;;;;;;;5001659;28;20430;-80
2022/12/11 13:05:42;;;;;;;83.18;28.73;;;;;;;;;;5055224;28;20698;-80
2022/12/11 13:08:08;;;;;;;79.03;28.98;;;;;;;;;;5062118;28;20418;-81
2022/12/11 13:10:39;;;;;;;80.60;28.80;;;;;;;;;;5076175;28;20424;-80
2022/12/11 13:13:05;;;;;;;76.35;28.05;;;;;;;;;;5056819;28;20480;-80
2022/12/11 13:15:37;;;;;;;73.22;28.27;;;;;;;;;;5055363;28;20421;-80
2022/12/11 13:18:06;;;;;;;72.60;27.53;;;;;;;;;;5037424;28;20430;-81
2022/12/11 13:20:33;;;;;;;75.82;29.77;;;;;;;;;;5056686;28;20408;-79
2022/12/11 13:23:05;;;;;;;78.47;29.88;;;;;;;;;;5054712;28;20411;-80
2022/12/11 13:25:32;;;;;;;77.75;29.60;;;;;;;;;;5036692;28;20915;-80
2022/12/11 13:28:05;;;;;;;75.78;30.05;;;;;;;;;;5053564;28;20412;-81
2022/12/11 13:30:31;;;;;;;78.65;29.17;;;;;;;;;;5054449;28;20406;-80
2022/12/11 13:33:07;;;;;;;75.33;28.90;;;;;;;;;;5054619;28;20403;-79
2022/12/11 13:35:34;;;;;;;72.43;29.38;;;;;;;;;;5037810;28;21148;-80
2022/12/11 13:38:08;;;;;;;73.00;29.25;;;;;;;;;;5053105;28;20823;-80
2022/12/11 13:40:39;;;;;;;79.97;32.17;;;;;;;;;;5037932;28;20490;-79
2022/12/11 13:43:15;;;;;;;73.37;28.60;;;;;;;;;;5054187;28;20460;-80
2022/12/11 13:45:41;;;;;;;72.00;28.10;;;;;;;;;;5037630;28;20408;-80
2022/12/11 13:48:26;;;;;;;69.20;27.17;;;;;;;;;;5053357;28;20434;-80
2022/12/11 13:50:53;;;;;;;68.55;27.92;;;;;;;;;;5053915;28;20910;-80
2022/12/11 13:53:20;;;;;;;59.20;25.95;;;;;;;;;;5053586;28;20419;-80
2022/12/11 13:55:46;;;;;;;58.63;26.52;;;;;;;;;;5055068;28;20411;-80
2022/12/11 13:58:20;;;;;;;59.17;25.60;;;;;;;;;;5053142;28;20427;-81
2022/12/11 14:00:54;;;;;;;102.05;29.35;;;;;;;;;;5053373;28;20415;-80
2022/12/11 14:03:20;;;;;;;59.92;26.30;;;;;;;;;;5037643;28;20406;-81
2022/12/11 14:05:46;;;;;;;65.95;27.85;;;;;;;;;;5053372;28;20506;-80
2022/12/11 14:08:17;;;;;;;67.78;27.63;;;;;;;;;;5036860;28;20451;-80
2022/12/11 14:10:43;;;;;;;62.28;27.13;;;;;;;;;;5053741;28;20427;-80
2022/12/11 14:13:18;;;;;;;56.83;25.83;;;;;;;;;;5054180;28;20412;-80
2022/12/11 14:15:45;;;;;;;54.15;25.55;;;;;;;;;;5037506;28;20762;-80
2022/12/11 14:18:20;;;;;;;49.55;24.00;;;;;;;;;;5036436;28;20453;-80
2022/12/11 14:20:52;;;;;;;50.25;23.75;;;;;;;;;;5036772;28;20454;-80
2022/12/11 14:23:21;;;;;;;48.13;22.53;;;;;;;;;;5037058;28;20410;-80
2022/12/11 14:25:53;;;;;;;49.30;23.57;;;;;;;;;;5071997;28;20483;-80